sensor_id;sensor_type;location;lat;lon;timestamp;pressure;altitude;pressure_sealevel;temperature;humidity
12973;BME280;6551;51.056;9.466;2023-02-19T00:01:46;97651.91;;;9.76;100.00
12973;BME280;6551;51.056;9.466;2023-02-19T00:04:20;97637.56;;;9.77;100.00
12973;BME280;6551;51.056;9.466;2023-02-19T00:06:47;97637.38;;;9.72;100.00
12973;BME280;6551;51.056;9.466;2023-02-19T00:09:16;97635.94;;;9.76;100.00
12973;BME280;6551;51.056;9.466;2023-02-19T00:11:43;97626.69;;;9.85;100.00
12973;BME280;6551;51.056;9.466;2023-02-19T00:14:14;97625.25;;;9.83;100.00
12973;BME280;6551;51.056;9.466;2023-02-19T00:16:41;97605.03;;;9.82;100.00
12973;BME280;6551;51.056;9.466;2023-02-19T00:19:14;97621.38;;;9.85;100.00
12973;BME280;6551;51.056;9.466;2023-02-19T00:21:40;97629.00;;;10.07;100.00
12973;BME280;6551;51.056;9.466;2023-02-19T00:24:06;97626.03;;;9.90;100.00
12973;BME280;6551;51.056;9.466;2023-02-19T00:26:32;97638.78;;;9.81;100.00
12973;BME280;6551;51.056;9.466;2023-02-19T00:29:00;97653.88;;;9.87;100.00
12973;BME280;6551;51.056;9.466;2023-02-19T00:31:30;97642.69;;;9.79;100.00
12973;BME280;6551;51.056;9.466;2023-02-19T00:34:01;97629.59;;;9.77;100.00
12973;BME280;6551;51.056;9.466;2023-02-19T00:36:29;97614.19;;;9.86;100.00
12973;BME280;6551;51.056;9.466;2023-02-19T00:38:55;97616.06;;;9.85;100.00
12973;BME280;6551;51.056;9.466;2023-02-19T00:41:23;97617.13;;;10.02;100.00
12973;BME280;6551;51.056;9.466;2023-02-19T00:44:06;97614.91;;;9.99;100.00
12973;BME280;6551;51.056;9.466;2023-02-19T00:46:39;97613.88;;;10.00;100.00
12973;BME280;6551;51.056;9.466;2023-02-19T00:49:06;97601.00;;;9.97;100.00
12973;BME280;6551;51.056;9.466;2023-02-19T00:51:37;97603.47;;;9.99;100.00
12973;BME280;6551;51.056;9.466;2023-02-19T00:54:04;97598.63;;;9.89;100.00
12973;BME280;6551;51.056;9.466;2023-02-19T00:56:30;97601.28;;;9.89;100.00
12973;BME280;6551;51.056;9.466;2023-02-19T00:58:56;97608.75;;;9.74;100.00
12973;BME280;6551;51.056;9.466;2023-02-19T01:01:25;97605.78;;;9.89;100.00
12973;BME280;6551;51.056;9.466;2023-02-19T01:03:52;97614.25;;;9.79;100.00
12973;BME280;6551;51.056;9.466;2023-02-19T01:06:20;97588.81;;;9.90;100.00
12973;BME280;6551;51.056;9.466;2023-02-19T01:08:47;97593.19;;;10.02;100.00
12973;BME280;6551;51.056;9.466;2023-02-19T01:11:15;97587.19;;;10.14;100.00
12973;BME280;6551;51.056;9.466;2023-02-19T01:13:42;97595.38;;;10.12;100.00
12973;BME280;6551;51.056;9.466;2023-02-19T01:16:13;97593.81;;;10.05;100.00
12973;BME280;6551;51.056;9.466;2023-02-19T01:18:39;97591.34;;;10.03;100.00
12973;BME280;6551;51.056;9.466;2023-02-19T01:21:10;97598.72;;;10.08;100.00
12973;BME280;6551;51.056;9.466;2023-02-19T01:23:37;97583.81;;;10.00;100.00
12973;BME280;6551;51.056;9.466;2023-02-19T01:26:06;97577.91;;;9.98;100.00
12973;BME280;6551;51.056;9.466;2023-02-19T01:28:34;97567.84;;;10.00;100.00
12973;BME280;6551;51.056;9.466;2023-02-19T01:31:06;97573.97;;;10.00;100.00
12973;BME280;6551;51.056;9.466;2023-02-19T01:33:32;97576.97;;;10.11;100.00
12973;BME280;6551;51.056;9.466;2023-02-19T01:36:03;97582.28;;;9.86;100.00
12973;BME280;6551;51.056;9.466;2023-02-19T01:38:30;97581.19;;;9.69;100.00
12973;BME280;6551;51.056;9.466;2023-02-19T01:40:57;97574.97;;;9.81;100.00
12973;BME280;6551;51.056;9.466;2023-02-19T01:43:23;97550.28;;;9.74;100.00
12973;BME280;6551;51.056;9.466;2023-02-19T01:45:50;97555.13;;;9.77;100.00
12973;BME280;6551;51.056;9.466;2023-02-19T01:48:35;97546.41;;;9.70;100.00
12973;BME280;6551;51.056;9.466;2023-02-19T01:51:06;97555.63;;;9.68;100.00
12973;BME280;6551;51.056;9.466;2023-02-19T01:53:44;97546.41;;;9.70;100.00
12973;BME280;6551;51.056;9.466;2023-02-19T01:56:13;97547.66;;;9.68;100.00
12973;BME280;6551;51.056;9.466;2023-02-19T01:58:41;97548.91;;;9.65;100.00
12973;BME280;6551;51.056;9.466;2023-02-19T02:01:10;97553.28;;;9.78;100.00
12973;BME280;6551;51.056;9.466;2023-02-19T02:03:40;97541.69;;;9.72;100.00
12973;BME280;6551;51.056;9.466;2023-02-19T02:06:27;97554.91;;;9.54;100.00
12973;BME280;6551;51.056;9.466;2023-02-19T02:08:56;97536.63;;;9.64;100.00
12973;BME280;6551;51.056;9.466;2023-02-19T02:11:49;97543.22;;;9.86;100.00
12973;BME280;6551;51.056;9.466;2023-02-19T02:14:18;97540.94;;;9.65;100.00
12973;BME280;6551;51.056;9.466;2023-02-19T02:32:18;97534.13;;;9.69;100.00
12973;BME280;6551;51.056;9.466;2023-02-19T02:34:56;97515.31;;;9.71;100.00
12973;BME280;6551;51.056;9.466;2023-02-19T02:37:25;97516.34;;;9.70;100.00
12973;BME280;6551;51.056;9.466;2023-02-19T02:39:55;97524.47;;;9.75;100.00
12973;BME280;6551;51.056;9.466;2023-02-19T02:42:22;97522.88;;;9.74;100.00
12973;BME280;6551;51.056;9.466;2023-02-19T02:44:56;97520.84;;;9.69;100.00
12973;BME280;6551;51.056;9.466;2023-02-19T02:47:52;97525.41;;;9.62;100.00
12973;BME280;6551;51.056;9.466;2023-02-19T02:50:28;97524.97;;;9.65;100.00
12973;BME280;6551;51.056;9.466;2023-02-19T02:53:05;97513.75;;;9.63;100.00
12973;BME280;6551;51.056;9.466;2023-02-19T02:55:52;97515.75;;;9.68;100.00
12973;BME280;6551;51.056;9.466;2023-02-19T02:58:22;97509.84;;;9.66;100.00
12973;BME280;6551;51.056;9.466;2023-02-19T03:00:56;97520.81;;;9.76;100.00
12973;BME280;6551;51.056;9.466;2023-02-19T03:03:47;97523.47;;;9.76;100.00
12973;BME280;6551;51.056;9.466;2023-02-19T03:06:16;97514.72;;;9.69;100.00
12973;BME280;6551;51.056;9.466;2023-02-19T03:08:53;97515.31;;;9.71;100.00
12973;BME280;6551;51.056;9.466;2023-02-19T03:11:21;97511.25;;;9.68;100.00
12973;BME280;6551;51.056;9.466;2023-02-19T03:17:01;97516.47;;;9.81;100.00
12973;BME280;6551;51.056;9.466;2023-02-19T03:19:56;97510.97;;;9.76;100.00
12973;BME280;6551;51.056;9.466;2023-02-19T03:22:30;97510.97;;;9.76;100.00
12973;BME280;6551;51.056;9.466;2023-02-19T03:25:26;97497.19;;;9.86;100.00
12973;BME280;6551;51.056;9.466;2023-02-19T03:28:16;97503.91;;;9.88;100.00
12973;BME280;6551;51.056;9.466;2023-02-19T03:30:50;97484.56;;;9.81;100.00
12973;BME280;6551;51.056;9.466;2023-02-19T03:33:22;97486.66;;;9.73;100.00
12973;BME280;6551;51.056;9.466;2023-02-19T03:35:57;97479.72;;;9.72;100.00
12973;BME280;6551;51.056;9.466;2023-02-19T03:38:43;97486.81;;;9.78;100.00
12973;BME280;6551;51.056;9.466;2023-02-19T03:41:47;97478.94;;;9.89;100.00
12973;BME280;6551;51.056;9.466;2023-02-19T03:48:57;97476.31;;;9.65;100.00
12973;BME280;6551;51.056;9.466;2023-02-19T03:52:26;97494.97;;;9.58;100.00
12973;BME280;6551;51.056;9.466;2023-02-19T04:01:18;97494.22;;;9.76;100.00
12973;BME280;6551;51.056;9.466;2023-02-19T04:03:58;97471.25;;;9.81;100.00
12973;BME280;6551;51.056;9.466;2023-02-19T04:06:30;97476.72;;;9.86;100.00
12973;BME280;6551;51.056;9.466;2023-02-19T04:09:02;97468.16;;;9.84;100.00
12973;BME280;6551;51.056;9.466;2023-02-19T04:11:29;97483.63;;;9.69;100.00
12973;BME280;6551;51.056;9.466;2023-02-19T04:18:17;97487.59;;;9.85;100.00
12973;BME280;6551;51.056;9.466;2023-02-19T04:20:45;97470.44;;;9.81;100.00
12973;BME280;6551;51.056;9.466;2023-02-19T04:23:15;97483.81;;;9.74;100.00
12973;BME280;6551;51.056;9.466;2023-02-19T04:25:45;97495.63;;;9.78;100.00
12973;BME280;6551;51.056;9.466;2023-02-19T04:28:13;97505.06;;;9.74;100.00
12973;BME280;6551;51.056;9.466;2023-02-19T04:30:41;97509.34;;;9.75;100.00
12973;BME280;6551;51.056;9.466;2023-02-19T04:33:08;97513.63;;;9.52;100.00
12973;BME280;6551;51.056;9.466;2023-02-19T04:35:35;97515.50;;;9.45;100.00
12973;BME280;6551;51.056;9.466;2023-02-19T04:38:02;97528.19;;;9.74;100.00
12973;BME280;6551;51.056;9.466;2023-02-19T04:40:27;97522.25;;;9.72;100.00
12973;BME280;6551;51.056;9.466;2023-02-19T04:42:54;97535.03;;;9.63;100.00
12973;BME280;6551;51.056;9.466;2023-02-19T04:45:21;97536.63;;;9.64;100.00
12973;BME280;6551;51.056;9.466;2023-02-19T04:47:47;97541.53;;;9.67;100.00
12973;BME280;6551;51.056;9.466;2023-02-19T04:50:13;97554.41;;;9.64;100.00
12973;BME280;6551;51.056;9.466;2023-02-19T04:52:39;97555.38;;;9.76;100.00
12973;BME280;6551;51.056;9.466;2023-02-19T04:55:06;97558.41;;;9.79;100.00
12973;BME280;6551;51.056;9.466;2023-02-19T04:57:34;97563.06;;;9.84;100.00
12973;BME280;6551;51.056;9.466;2023-02-19T05:00:01;97575.81;;;10.00;100.00
12973;BME280;6551;51.056;9.466;2023-02-19T05:02:29;97581.25;;;10.12;100.00
12973;BME280;6551;51.056;9.466;2023-02-19T05:04:56;97583.47;;;10.21;100.00
12973;BME280;6551;51.056;9.466;2023-02-19T05:07:23;97581.59;;;10.22;100.00
12973;BME280;6551;51.056;9.466;2023-02-19T05:09:48;97574.50;;;10.16;100.00
12973;BME280;6551;51.056;9.466;2023-02-19T05:12:14;97584.72;;;10.19;100.00
12973;BME280;6551;51.056;9.466;2023-02-19T05:14:39;97585.22;;;10.02;100.00
12973;BME280;6551;51.056;9.466;2023-02-19T05:17:05;97590.06;;;10.19;100.00
12973;BME280;6551;51.056;9.466;2023-02-19T05:19:32;97599.22;;;10.23;100.00
12973;BME280;6551;51.056;9.466;2023-02-19T05:21:59;97601.47;;;10.19;100.00
12973;BME280;6551;51.056;9.466;2023-02-19T05:24:25;97587.84;;;10.09;100.00
12973;BME280;6551;51.056;9.466;2023-02-19T05:26:51;97597.75;;;9.95;100.00
12973;BME280;6551;51.056;9.466;2023-02-19T05:29:17;97587.56;;;9.92;100.00
12973;BME280;6551;51.056;9.466;2023-02-19T05:31:44;97602.84;;;9.97;100.00
12973;BME280;6551;51.056;9.466;2023-02-19T05:34:10;97609.16;;;10.02;100.00
12973;BME280;6551;51.056;9.466;2023-02-19T05:36:36;97616.06;;;10.10;100.00
12973;BME280;6551;51.056;9.466;2023-02-19T05:39:04;97620.78;;;10.08;100.00
12973;BME280;6551;51.056;9.466;2023-02-19T05:41:31;97623.66;;;10.07;100.00
12973;BME280;6551;51.056;9.466;2023-02-19T05:43:57;97615.78;;;9.93;100.00
12973;BME280;6551;51.056;9.466;2023-02-19T05:46:27;97608.06;;;10.17;100.00
12973;BME280;6551;51.056;9.466;2023-02-19T05:48:55;97610.97;;;10.09;100.00
12973;BME280;6551;51.056;9.466;2023-02-19T05:51:25;97603.25;;;10.00;100.00
12973;BME280;6551;51.056;9.466;2023-02-19T05:53:52;97605.03;;;10.13;99.75
12973;BME280;6551;51.056;9.466;2023-02-19T05:59:19;97628.31;;;10.11;99.51
12973;BME280;6551;51.056;9.466;2023-02-19T06:01:46;97634.19;;;10.26;98.75
12973;BME280;6551;51.056;9.466;2023-02-19T06:04:12;97632.47;;;10.38;98.32
12973;BME280;6551;51.056;9.466;2023-02-19T06:06:39;97644.44;;;10.23;98.08
12973;BME280;6551;51.056;9.466;2023-02-19T06:09:05;97636.72;;;10.15;98.35
12973;BME280;6551;51.056;9.466;2023-02-19T06:11:32;97638.59;;;10.08;98.69
12973;BME280;6551;51.056;9.466;2023-02-19T06:13:58;97649.28;;;10.01;98.24
12973;BME280;6551;51.056;9.466;2023-02-19T06:16:24;97650.72;;;9.97;98.23
12973;BME280;6551;51.056;9.466;2023-02-19T06:18:51;97661.00;;;9.93;98.20
12973;BME280;6551;51.056;9.466;2023-02-19T06:21:17;97668.91;;;10.00;98.26
12973;BME280;6551;51.056;9.466;2023-02-19T06:23:44;97683.88;;;10.01;98.23
12973;BME280;6551;51.056;9.466;2023-02-19T06:26:13;97688.09;;;10.09;98.04
12973;BME280;6551;51.056;9.466;2023-02-19T06:28:40;97680.78;;;10.04;98.13
12973;BME280;6551;51.056;9.466;2023-02-19T06:31:09;97691.19;;;10.06;98.46
12973;BME280;6551;51.056;9.466;2023-02-19T06:33:36;97692.66;;;10.02;98.17
12973;BME280;6551;51.056;9.466;2023-02-19T06:36:09;97693.03;;;10.05;98.36
12973;BME280;6551;51.056;9.466;2023-02-19T06:38:37;97690.56;;;10.10;98.38
12973;BME280;6551;51.056;9.466;2023-02-19T06:41:05;97687.91;;;10.10;98.01
12973;BME280;6551;51.056;9.466;2023-02-19T06:43:33;97696.50;;;10.06;97.56
12973;BME280;6551;51.056;9.466;2023-02-19T06:46:02;97706.72;;;10.15;97.01
12973;BME280;6551;51.056;9.466;2023-02-19T06:48:30;97704.41;;;10.25;96.81
12973;BME280;6551;51.056;9.466;2023-02-19T06:50:58;97698.47;;;10.23;96.63
12973;BME280;6551;51.056;9.466;2023-02-19T06:53:24;97706.88;;;10.20;96.11
12973;BME280;6551;51.056;9.466;2023-02-19T06:56:18;97704.97;;;10.27;95.30
12973;BME280;6551;51.056;9.466;2023-02-19T06:58:46;97714.06;;;10.20;94.88
12973;BME280;6551;51.056;9.466;2023-02-19T07:01:13;97724.50;;;10.21;94.52
12973;BME280;6551;51.056;9.466;2023-02-19T07:03:39;97706.94;;;10.14;94.71
12973;BME280;6551;51.056;9.466;2023-02-19T07:06:05;97720.38;;;10.25;94.56
12973;BME280;6551;51.056;9.466;2023-02-19T07:08:30;97724.06;;;10.24;94.26
12973;BME280;6551;51.056;9.466;2023-02-19T07:10:57;97743.78;;;10.41;93.71
12973;BME280;6551;51.056;9.466;2023-02-19T07:13:25;97737.19;;;10.50;93.69
12973;BME280;6551;51.056;9.466;2023-02-19T07:16:05;97748.66;;;10.51;93.17
12973;BME280;6551;51.056;9.466;2023-02-19T07:18:37;97758.91;;;10.47;93.17
12973;BME280;6551;51.056;9.466;2023-02-19T07:21:06;97749.84;;;10.55;93.13
12973;BME280;6551;51.056;9.466;2023-02-19T07:23:33;97756.09;;;10.67;92.34
12973;BME280;6551;51.056;9.466;2023-02-19T07:26:00;97762.63;;;10.46;92.70
12973;BME280;6551;51.056;9.466;2023-02-19T07:28:27;97765.75;;;10.37;93.18
12973;BME280;6551;51.056;9.466;2023-02-19T07:31:03;97777.03;;;10.32;93.46
12973;BME280;6551;51.056;9.466;2023-02-19T07:33:31;97779.56;;;10.21;94.09
12973;BME280;6551;51.056;9.466;2023-02-19T07:35:58;97784.78;;;10.34;93.76
12973;BME280;6551;51.056;9.466;2023-02-19T07:38:26;97776.59;;;10.35;93.90
12973;BME280;6551;51.056;9.466;2023-02-19T07:41:00;97774.97;;;10.34;94.09
12973;BME280;6551;51.056;9.466;2023-02-19T07:43:29;97780.88;;;10.36;94.22
12973;BME280;6551;51.056;9.466;2023-02-19T07:45:56;97787.44;;;10.40;94.26
12973;BME280;6551;51.056;9.466;2023-02-19T07:48:23;97792.78;;;10.34;94.24
12973;BME280;6551;51.056;9.466;2023-02-19T07:50:58;97801.31;;;10.42;93.58
12973;BME280;6551;51.056;9.466;2023-02-19T07:53:26;97802.47;;;10.53;93.52
12973;BME280;6551;51.056;9.466;2023-02-19T07:55:58;97807.25;;;10.44;93.62
12973;BME280;6551;51.056;9.466;2023-02-19T07:58:27;97812.06;;;10.29;94.04
12973;BME280;6551;51.056;9.466;2023-02-19T08:00:53;97820.56;;;10.44;94.00
12973;BME280;6551;51.056;9.466;2023-02-19T08:03:20;97823.41;;;10.49;93.76
12973;BME280;6551;51.056;9.466;2023-02-19T08:05:46;97823.16;;;10.57;93.41
12973;BME280;6551;51.056;9.466;2023-02-19T08:08:16;97835.13;;;10.73;93.44
12973;BME280;6551;51.056;9.466;2023-02-19T08:10:42;97840.69;;;10.72;92.96
12973;BME280;6551;51.056;9.466;2023-02-19T08:13:29;97857.25;;;10.74;92.29
12973;BME280;6551;51.056;9.466;2023-02-19T08:18:30;97861.78;;;10.98;91.67
12973;BME280;6551;51.056;9.466;2023-02-19T08:20:58;97863.44;;;10.99;91.17
12973;BME280;6551;51.056;9.466;2023-02-19T08:23:25;97872.06;;;10.94;90.67
12973;BME280;6551;51.056;9.466;2023-02-19T08:25:56;97857.72;;;10.95;90.77
12973;BME280;6551;51.056;9.466;2023-02-19T08:28:23;97859.34;;;10.96;89.94
12973;BME280;6551;51.056;9.466;2023-02-19T08:30:50;97870.38;;;11.00;90.50
12973;BME280;6551;51.056;9.466;2023-02-19T08:33:18;97871.50;;;10.86;90.07
12973;BME280;6551;51.056;9.466;2023-02-19T08:35:45;97873.63;;;10.77;89.90
12973;BME280;6551;51.056;9.466;2023-02-19T08:38:12;97876.66;;;10.81;89.67
12973;BME280;6551;51.056;9.466;2023-02-19T08:40:39;97881.91;;;10.63;89.39
12973;BME280;6551;51.056;9.466;2023-02-19T08:43:12;97881.22;;;10.74;89.59
12973;BME280;6551;51.056;9.466;2023-02-19T08:45:41;97879.63;;;10.66;90.23
12973;BME280;6551;51.056;9.466;2023-02-19T08:48:08;97878.56;;;10.74;90.43
12973;BME280;6551;51.056;9.466;2023-02-19T08:50:35;97887.25;;;10.56;90.62
12973;BME280;6551;51.056;9.466;2023-02-19T08:53:04;97878.41;;;10.62;90.67
12973;BME280;6551;51.056;9.466;2023-02-19T08:55:32;97884.09;;;10.72;90.35
12973;BME280;6551;51.056;9.466;2023-02-19T08:57:59;97885.75;;;10.67;90.39
12973;BME280;6551;51.056;9.466;2023-02-19T09:00:26;97892.03;;;10.79;90.10
12973;BME280;6551;51.056;9.466;2023-02-19T09:02:52;97897.16;;;10.80;89.74
12973;BME280;6551;51.056;9.466;2023-02-19T09:05:17;97908.56;;;10.94;89.48
12973;BME280;6551;51.056;9.466;2023-02-19T09:07:43;97909.78;;;10.60;91.16
12973;BME280;6551;51.056;9.466;2023-02-19T09:10:11;97921.25;;;10.61;92.44
12973;BME280;6551;51.056;9.466;2023-02-19T09:12:38;97918.13;;;10.64;93.08
12973;BME280;6551;51.056;9.466;2023-02-19T09:15:05;97912.28;;;10.48;93.45
12973;BME280;6551;51.056;9.466;2023-02-19T09:17:35;97918.03;;;10.45;94.39
12973;BME280;6551;51.056;9.466;2023-02-19T09:20:00;97914.31;;;10.53;93.99
12973;BME280;6551;51.056;9.466;2023-02-19T09:22:26;97927.03;;;10.44;93.72
12973;BME280;6551;51.056;9.466;2023-02-19T09:24:54;97919.47;;;10.41;94.18
12973;BME280;6551;51.056;9.466;2023-02-19T09:27:20;97936.06;;;10.43;94.07
12973;BME280;6551;51.056;9.466;2023-02-19T09:29:46;97933.41;;;10.43;94.13
12973;BME280;6551;51.056;9.466;2023-02-19T09:32:12;97935.88;;;10.38;93.57
12973;BME280;6551;51.056;9.466;2023-02-19T09:34:38;97921.81;;;10.18;92.99
12973;BME280;6551;51.056;9.466;2023-02-19T09:37:05;97924.25;;;10.20;93.27
12973;BME280;6551;51.056;9.466;2023-02-19T09:39:33;97924.84;;;10.35;93.65
12973;BME280;6551;51.056;9.466;2023-02-19T09:42:30;97937.34;;;10.28;93.84
12973;BME280;6551;51.056;9.466;2023-02-19T09:44:59;97948.78;;;10.35;94.04
12973;BME280;6551;51.056;9.466;2023-02-19T09:47:30;97951.19;;;10.49;94.07
12973;BME280;6551;51.056;9.466;2023-02-19T09:50:07;97957.97;;;10.45;94.33
12973;BME280;6551;51.056;9.466;2023-02-19T09:52:43;97954.03;;;10.54;93.91
12973;BME280;6551;51.056;9.466;2023-02-19T09:55:34;97962.22;;;10.53;94.17
12973;BME280;6551;51.056;9.466;2023-02-19T09:58:46;97957.34;;;10.43;94.01
12973;BME280;6551;51.056;9.466;2023-02-19T10:01:13;97951.63;;;10.40;94.19
12973;BME280;6551;51.056;9.466;2023-02-19T10:03:43;97961.03;;;10.49;94.21
12973;BME280;6551;51.056;9.466;2023-02-19T10:06:24;97966.94;;;10.57;94.20
12973;BME280;6551;51.056;9.466;2023-02-19T10:08:54;97975.41;;;10.35;93.89
12973;BME280;6551;51.056;9.466;2023-02-19T10:11:25;97970.28;;;10.33;94.46
12973;BME280;6551;51.056;9.466;2023-02-19T10:14:07;97979.25;;;10.45;94.33
12973;BME280;6551;51.056;9.466;2023-02-19T10:16:42;97983.34;;;10.48;94.18
12973;BME280;6551;51.056;9.466;2023-02-19T10:19:13;97986.41;;;10.45;93.87
12973;BME280;6551;51.056;9.466;2023-02-19T10:21:40;97993.59;;;10.44;94.17
12973;BME280;6551;51.056;9.466;2023-02-19T10:24:07;97990.75;;;10.39;94.74
12973;BME280;6551;51.056;9.466;2023-02-19T10:26:38;98009.13;;;10.47;95.13
12973;BME280;6551;51.056;9.466;2023-02-19T10:29:05;98006.25;;;10.55;95.41
12973;BME280;6551;51.056;9.466;2023-02-19T10:31:32;98009.66;;;10.76;94.22
12973;BME280;6551;51.056;9.466;2023-02-19T10:34:01;98015.91;;;11.01;93.37
12973;BME280;6551;51.056;9.466;2023-02-19T10:36:40;98015.28;;;11.37;92.75
12973;BME280;6551;51.056;9.466;2023-02-19T10:39:45;98026.66;;;11.57;89.94
12973;BME280;6551;51.056;9.466;2023-02-19T10:42:23;98032.09;;;11.68;89.03
12973;BME280;6551;51.056;9.466;2023-02-19T10:44:56;98023.56;;;11.60;88.61
12973;BME280;6551;51.056;9.466;2023-02-19T10:47:29;98030.75;;;11.53;87.75
12973;BME280;6551;51.056;9.466;2023-02-19T10:49:58;98032.41;;;11.54;87.92
12973;BME280;6551;51.056;9.466;2023-02-19T10:52:31;98052.78;;;11.80;88.61
12973;BME280;6551;51.056;9.466;2023-02-19T10:57:53;98066.22;;;11.91;87.29
12973;BME280;6551;51.056;9.466;2023-02-19T11:00:30;98071.63;;;11.85;85.75
12973;BME280;6551;51.056;9.466;2023-02-19T11:03:21;98067.19;;;11.72;85.40
12973;BME280;6551;51.056;9.466;2023-02-19T11:06:06;98066.25;;;11.53;85.48
12973;BME280;6551;51.056;9.466;2023-02-19T11:08:56;98069.41;;;11.44;84.70
12973;BME280;6551;51.056;9.466;2023-02-19T11:11:37;98089.44;;;11.15;84.41
12973;BME280;6551;51.056;9.466;2023-02-19T11:14:20;98096.78;;;10.55;85.53
12973;BME280;6551;51.056;9.466;2023-02-19T11:19:42;98111.09;;;10.09;87.48
12973;BME280;6551;51.056;9.466;2023-02-19T11:22:29;98111.50;;;9.86;87.91
12973;BME280;6551;51.056;9.466;2023-02-19T11:25:06;98099.22;;;9.78;88.09
12973;BME280;6551;51.056;9.466;2023-02-19T11:30:48;98115.38;;;9.70;89.80
12973;BME280;6551;51.056;9.466;2023-02-19T11:35:53;98118.44;;;9.80;90.19
12973;BME280;6551;51.056;9.466;2023-02-19T11:38:23;98097.81;;;9.82;88.81
12973;BME280;6551;51.056;9.466;2023-02-19T11:41:23;98105.78;;;9.89;88.54
12973;BME280;6551;51.056;9.466;2023-02-19T11:50:20;98098.03;;;10.40;88.87
12973;BME280;6551;51.056;9.466;2023-02-19T11:56:14;98120.31;;;10.58;87.36
12973;BME280;6551;51.056;9.466;2023-02-19T11:59:03;98127.69;;;10.50;86.49
12973;BME280;6551;51.056;9.466;2023-02-19T12:07:53;98132.84;;;10.51;84.74
12973;BME280;6551;51.056;9.466;2023-02-19T12:19:49;98139.16;;;10.05;85.50
12973;BME280;6551;51.056;9.466;2023-02-19T12:22:26;98139.78;;;10.07;85.83
12973;BME280;6551;51.056;9.466;2023-02-19T12:25:01;98136.25;;;9.99;85.45
12973;BME280;6551;51.056;9.466;2023-02-19T12:27:53;98136.28;;;10.06;85.49
12973;BME280;6551;51.056;9.466;2023-02-19T12:34:09;98134.28;;;10.15;85.44
12973;BME280;6551;51.056;9.466;2023-02-19T12:43:05;98122.19;;;10.32;84.64
12973;BME280;6551;51.056;9.466;2023-02-19T12:48:45;98115.03;;;10.52;84.79
12973;BME280;6551;51.056;9.466;2023-02-19T12:51:49;98118.91;;;10.63;84.21
12973;BME280;6551;51.056;9.466;2023-02-19T12:54:36;98122.75;;;10.67;83.35
12973;BME280;6551;51.056;9.466;2023-02-19T12:57:24;98122.94;;;10.85;83.81
12973;BME280;6551;51.056;9.466;2023-02-19T13:00:03;98125.56;;;10.98;83.75
12973;BME280;6551;51.056;9.466;2023-02-19T13:08:53;98146.03;;;11.10;83.54
12973;BME280;6551;51.056;9.466;2023-02-19T13:14:44;98155.06;;;11.09;83.30
12973;BME280;6551;51.056;9.466;2023-02-19T13:17:50;98150.38;;;11.05;82.73
12973;BME280;6551;51.056;9.466;2023-02-19T13:20:34;98160.38;;;11.03;82.12
12973;BME280;6551;51.056;9.466;2023-02-19T13:23:34;98159.38;;;10.97;82.02
12973;BME280;6551;51.056;9.466;2023-02-19T13:36:11;98200.81;;;10.87;82.46
12973;BME280;6551;51.056;9.466;2023-02-19T13:38:45;98193.44;;;10.82;82.37
12973;BME280;6551;51.056;9.466;2023-02-19T13:41:51;98187.66;;;10.92;82.64
12973;BME280;6551;51.056;9.466;2023-02-19T13:44:23;98193.19;;;10.97;82.85
12973;BME280;6551;51.056;9.466;2023-02-19T13:46:50;98193.22;;;10.84;82.54
12973;BME280;6551;51.056;9.466;2023-02-19T13:58:51;98202.00;;;11.04;82.20
12973;BME280;6551;51.056;9.466;2023-02-19T14:01:18;98193.59;;;11.00;82.51
12973;BME280;6551;51.056;9.466;2023-02-19T14:14:51;98212.28;;;10.94;83.30
12973;BME280;6551;51.056;9.466;2023-02-19T14:20:02;98200.13;;;11.11;82.64
12973;BME280;6551;51.056;9.466;2023-02-19T14:23:00;98193.78;;;11.19;83.11
12973;BME280;6551;51.056;9.466;2023-02-19T14:25:49;98202.75;;;11.31;83.13
12973;BME280;6551;51.056;9.466;2023-02-19T14:28:35;98201.50;;;11.33;81.74
12973;BME280;6551;51.056;9.466;2023-02-19T14:34:00;98203.44;;;11.13;81.97
12973;BME280;6551;51.056;9.466;2023-02-19T14:36:52;98209.59;;;11.07;82.17
12973;BME280;6551;51.056;9.466;2023-02-19T14:39:28;98198.50;;;11.10;82.07
12973;BME280;6551;51.056;9.466;2023-02-19T14:41:58;98192.59;;;11.01;82.71
12973;BME280;6551;51.056;9.466;2023-02-19T14:44:39;98212.44;;;11.05;82.81
12973;BME280;6551;51.056;9.466;2023-02-19T14:47:15;98219.84;;;11.03;82.67
12973;BME280;6551;51.056;9.466;2023-02-19T14:50:02;98216.56;;;10.95;83.07
12973;BME280;6551;51.056;9.466;2023-02-19T14:52:43;98220.25;;;11.00;82.86
12973;BME280;6551;51.056;9.466;2023-02-19T14:55:31;98230.50;;;10.97;82.34
12973;BME280;6551;51.056;9.466;2023-02-19T14:58:05;98222.94;;;10.81;82.73
12973;BME280;6551;51.056;9.466;2023-02-19T15:00:38;98240.38;;;10.77;83.42
12973;BME280;6551;51.056;9.466;2023-02-19T15:03:06;98234.03;;;10.71;83.91
12973;BME280;6551;51.056;9.466;2023-02-19T15:06:00;98234.63;;;10.73;83.80
12973;BME280;6551;51.056;9.466;2023-02-19T15:08:36;98233.19;;;10.71;83.73
12973;BME280;6551;51.056;9.466;2023-02-19T15:11:08;98236.06;;;10.56;83.62
12973;BME280;6551;51.056;9.466;2023-02-19T15:13:36;98239.31;;;10.45;84.16
12973;BME280;6551;51.056;9.466;2023-02-19T15:16:20;98243.03;;;10.44;84.35
12973;BME280;6551;51.056;9.466;2023-02-19T15:18:47;98244.66;;;10.45;84.49
12973;BME280;6551;51.056;9.466;2023-02-19T15:21:25;98247.50;;;10.37;84.72
12973;BME280;6551;51.056;9.466;2023-02-19T15:24:04;98236.66;;;10.32;84.83
12973;BME280;6551;51.056;9.466;2023-02-19T15:26:42;98237.06;;;10.29;85.29
12973;BME280;6551;51.056;9.466;2023-02-19T15:29:11;98240.53;;;10.36;85.86
12973;BME280;6551;51.056;9.466;2023-02-19T15:31:54;98234.41;;;10.35;85.99
12973;BME280;6551;51.056;9.466;2023-02-19T15:34:29;98232.75;;;10.34;85.77
12973;BME280;6551;51.056;9.466;2023-02-19T15:36:59;98227.06;;;10.44;85.00
12973;BME280;6551;51.056;9.466;2023-02-19T15:39:43;98222.13;;;10.47;84.44
12973;BME280;6551;51.056;9.466;2023-02-19T15:42:33;98221.91;;;10.36;84.07
12973;BME280;6551;51.056;9.466;2023-02-19T15:45:22;98227.25;;;10.42;83.91
12973;BME280;6551;51.056;9.466;2023-02-19T15:48:05;98225.00;;;10.46;84.34
12973;BME280;6551;51.056;9.466;2023-02-19T15:50:38;98209.22;;;10.51;84.08
12973;BME280;6551;51.056;9.466;2023-02-19T15:53:27;98210.47;;;10.55;83.94
12973;BME280;6551;51.056;9.466;2023-02-19T15:56:17;98204.94;;;10.56;84.34